Time;durP1;ratioP1;P1;durP2;ratioP2;P2;SDS_P1;SDS_P2;PMS_P1;PMS_P2;Temp;Humidity;BMP_temperature;BMP_pressure;BME280_temperature;BME280_humidity;BME280_pressure;Samples;Min_cycle;Max_cycle;Signal;HPM_P1;HPM_P2
2022/04/04 00:01:44;;;;;;;;;;;;;;;10.47;46.26;101774.69;5053707;28;19920;-77
2022/04/04 00:04:09;;;;;;;;;;;;;;;10.45;46.18;101771.38;5052040;28;19931;-78
2022/04/04 00:06:35;;;;;;;;;;;;;;;10.91;45.45;101766.09;5053098;28;19932;-77
2022/04/04 00:09:00;;;;;;;;;;;;;;;10.91;45.23;101765.28;5053368;28;19935;-77
2022/04/04 00:11:25;;;;;;;;;;;;;;;10.91;45.35;101765.28;5051342;28;19924;-77
2022/04/04 00:13:51;;;;;;;;;;;;;;;10.44;46.70;101758.13;5053012;28;20046;-77
2022/04/04 00:16:16;;;;;;;;;;;;;;;10.63;45.52;101751.16;5053790;28;20004;-77
2022/04/04 00:18:41;;;;;;;;;;;;;;;11.17;44.66;101743.78;5053625;28;20364;-78
2022/04/04 00:21:06;;;;;;;;;;;;;;;11.06;44.10;101747.09;5053163;28;19947;-77
2022/04/04 00:23:32;;;;;;;;;;;;;;;10.93;45.18;101752.47;5052361;28;19913;-76
2022/04/04 00:25:57;;;;;;;;;;;;;;;10.74;46.33;101739.81;5053394;28;20262;-77
2022/04/04 00:28:22;;;;;;;;;;;;;;;11.41;44.57;101740.47;5053224;28;19913;-77
2022/04/04 00:30:48;;;;;;;;;;;;;;;11.01;45.35;101733.41;5053338;28;20382;-76
2022/04/04 00:33:13;;;;;;;;;;;;;;;10.77;45.98;101732.16;5053422;28;19917;-77
2022/04/04 00:35:38;;;;;;;;;;;;;;;11.22;45.13;101720.59;5052636;28;19963;-75
2022/04/04 00:38:04;;;;;;;;;;;;;;;10.33;47.23;101730.00;5053714;28;19921;-77
2022/04/04 00:40:30;;;;;;;;;;;;;;;10.79;46.64;101722.03;5053370;28;20011;-78
2022/04/04 00:42:55;;;;;;;;;;;;;;;11.54;44.61;101710.81;5052753;28;19924;-78
2022/04/04 00:45:21;;;;;;;;;;;;;;;11.16;45.39;101693.72;5052809;28;19916;-77
2022/04/04 00:47:46;;;;;;;;;;;;;;;10.92;46.13;101707.78;5052718;28;19917;-76
2022/04/04 00:50:11;;;;;;;;;;;;;;;11.24;45.32;101688.13;5052566;28;19924;-76
2022/04/04 00:52:37;;;;;;;;;;;;;;;10.97;45.45;101700.72;5052903;28;20391;-75
2022/04/04 00:55:02;;;;;;;;;;;;;;;11.23;45.06;101684.59;5052336;28;20403;-77
2022/04/04 00:57:28;;;;;;;;;;;;;;;11.01;45.69;101685.00;5052578;28;19917;-76
2022/04/04 00:59:54;;;;;;;;;;;;;;;10.81;46.48;101670.75;5052365;28;19913;-76
2022/04/04 01:02:19;;;;;;;;;;;;;;;11.10;45.47;101668.47;5052519;28;19946;-76
2022/04/04 01:04:45;;;;;;;;;;;;;;;10.53;46.97;101669.06;5052151;28;19912;-75
2022/04/04 01:07:10;;;;;;;;;;;;;;;11.39;44.49;101651.03;5052760;28;19955;-76
2022/04/04 01:09:35;;;;;;;;;;;;;;;11.09;45.57;101642.59;5052217;28;19939;-77
2022/04/04 01:12:26;;;;;;;;;;;;;;;10.78;46.64;101644.28;5052517;28;20021;-76
2022/04/04 01:14:52;;;;;;;;;;;;;;;11.46;45.19;101636.50;5048054;28;19927;-77
2022/04/04 01:17:18;;;;;;;;;;;;;;;11.02;46.19;101627.50;5052138;28;20372;-76
2022/04/04 01:19:44;;;;;;;;;;;;;;;10.99;46.31;101623.38;5051987;28;20292;-75
2022/04/04 01:22:11;;;;;;;;;;;;;;;11.16;45.98;101621.09;5052083;28;19909;-76
2022/04/04 01:24:39;;;;;;;;;;;;;;;11.84;44.09;101609.69;5052081;28;19953;-77
2022/04/04 01:27:05;;;;;;;;;;;;;;;10.53;47.59;101611.81;5050585;28;20412;-76
2022/04/04 01:29:31;;;;;;;;;;;;;;;11.37;45.75;101604.66;5051749;28;19974;-76
2022/04/04 01:31:56;;;;;;;;;;;;;;;11.16;45.88;101605.75;5051595;28;20356;-77
2022/04/04 01:34:22;;;;;;;;;;;;;;;11.21;45.94;101589.81;5052828;28;19912;-76
2022/04/04 01:36:48;;;;;;;;;;;;;;;11.12;46.24;101591.09;5051980;28;19924;-76
2022/04/04 01:39:13;;;;;;;;;;;;;;;11.04;46.24;101585.09;5051638;28;19920;-76
2022/04/04 01:41:38;;;;;;;;;;;;;;;10.82;46.84;101592.56;5051262;28;20012;-74
2022/04/04 01:44:04;;;;;;;;;;;;;;;11.41;45.25;101563.69;5051588;28;20368;-77
2022/04/04 01:46:29;;;;;;;;;;;;;;;10.60;47.75;101565.09;5052122;28;20457;-76
2022/04/04 01:48:56;;;;;;;;;;;;;;;10.47;48.40;101561.59;5051658;28;19999;-75
2022/04/04 01:51:22;;;;;;;;;;;;;;;11.52;45.68;101543.31;5051451;28;19948;-76
2022/04/04 01:53:47;;;;;;;;;;;;;;;10.43;48.54;101552.28;5051753;28;20381;-75
2022/04/04 01:56:12;;;;;;;;;;;;;;;11.10;47.01;101541.22;5051767;28;19924;-76
2022/04/04 01:58:38;;;;;;;;;;;;;;;11.38;46.32;101536.34;5052880;28;19913;-76
2022/04/04 02:01:10;;;;;;;;;;;;;;;11.11;46.99;101524.03;5052065;28;19938;-74
2022/04/04 02:03:36;;;;;;;;;;;;;;;11.39;46.38;101519.19;5050650;28;19987;-75
2022/04/04 02:06:02;;;;;;;;;;;;;;;10.65;48.44;101523.31;5051592;28;20008;-78
2022/04/04 02:08:27;;;;;;;;;;;;;;;11.09;47.08;101515.34;5052106;28;19958;-76
2022/04/04 02:10:52;;;;;;;;;;;;;;;10.71;48.04;101517.94;5052135;28;19917;-77
2022/04/04 02:13:17;;;;;;;;;;;;;;;10.88;48.32;101494.13;5052335;28;19912;-77
2022/04/04 02:15:43;;;;;;;;;;;;;;;10.95;48.13;101492.22;5052108;28;20273;-76
2022/04/04 02:18:09;;;;;;;;;;;;;;;11.25;46.87;101488.81;5052038;28;19995;-77
2022/04/04 02:20:34;;;;;;;;;;;;;;;11.03;47.71;101481.22;5052276;28;20024;-75
2022/04/04 02:23:00;;;;;;;;;;;;;;;11.41;46.45;101487.50;5052017;28;20312;-75
2022/04/04 02:25:26;;;;;;;;;;;;;;;11.45;46.73;101467.19;5052975;28;20005;-76
2022/04/04 02:27:51;;;;;;;;;;;;;;;10.90;47.88;101479.44;5051971;28;19952;-75
2022/04/04 02:30:16;;;;;;;;;;;;;;;12.06;44.78;101453.97;5052111;28;19928;-75
2022/04/04 02:32:41;;;;;;;;;;;;;;;11.30;47.19;101454.00;5052712;28;19917;-75
2022/04/04 02:35:07;;;;;;;;;;;;;;;11.31;46.74;101461.06;5051856;28;20015;-77
2022/04/04 02:37:32;;;;;;;;;;;;;;;11.79;45.96;101441.75;5052382;28;20391;-75
2022/04/04 02:39:57;;;;;;;;;;;;;;;11.59;46.32;101446.41;5050157;28;19924;-76
2022/04/04 02:42:23;;;;;;;;;;;;;;;10.85;48.00;101438.91;5052318;28;20015;-76
2022/04/04 02:44:48;;;;;;;;;;;;;;;11.35;46.91;101435.38;5052309;28;19921;-77
2022/04/04 02:47:14;;;;;;;;;;;;;;;11.03;47.41;101428.28;5052239;28;19982;-75
2022/04/04 02:49:39;;;;;;;;;;;;;;;11.36;46.43;101417.38;5052451;28;20033;-76
2022/04/04 02:52:04;;;;;;;;;;;;;;;11.63;45.88;101409.94;5052712;28;20004;-77
2022/04/04 02:54:29;;;;;;;;;;;;;;;11.19;47.28;101400.06;5055354;28;19929;-77
2022/04/04 02:56:55;;;;;;;;;;;;;;;11.31;46.56;101412.63;5055614;28;20319;-77
2022/04/04 02:59:21;;;;;;;;;;;;;;;11.70;45.92;101381.94;5055943;28;19967;-75
2022/04/04 03:01:48;;;;;;;;;;;;;;;11.42;46.75;101371.56;5055508;28;19920;-75
2022/04/04 03:04:14;;;;;;;;;;;;;;;11.81;45.69;101375.84;5053961;28;19920;-75
2022/04/04 03:06:39;;;;;;;;;;;;;;;11.84;45.46;101374.59;5054535;28;19999;-75
2022/04/04 03:09:05;;;;;;;;;;;;;;;11.67;46.02;101379.72;5054731;28;19923;-74
2022/04/04 03:11:30;;;;;;;;;;;;;;;11.52;46.17;101351.44;5055176;28;19917;-76
2022/04/04 03:13:55;;;;;;;;;;;;;;;11.23;46.95;101340.25;5054560;28;19924;-75
2022/04/04 03:16:20;;;;;;;;;;;;;;;11.72;45.70;101349.41;5055446;28;19969;-75
2022/04/04 03:18:46;;;;;;;;;;;;;;;10.61;48.00;101343.66;5055081;28;19966;-75
2022/04/04 03:21:12;;;;;;;;;;;;;;;11.98;44.57;101336.56;5054391;28;19916;-73
2022/04/04 03:23:39;;;;;;;;;;;;;;;11.10;46.30;101340.34;5054698;28;19970;-74
2022/04/04 03:26:05;;;;;;;;;;;;;;;11.67;45.56;101330.41;5054977;28;19991;-77
2022/04/04 03:28:30;;;;;;;;;;;;;;;11.03;46.78;101314.50;5056235;28;20348;-74
2022/04/04 03:30:55;;;;;;;;;;;;;;;11.35;46.52;101298.16;5055089;28;19913;-75
2022/04/04 03:33:21;;;;;;;;;;;;;;;11.29;46.30;101301.69;5054677;28;19920;-75
2022/04/04 03:35:47;;;;;;;;;;;;;;;11.68;45.49;101300.56;5054657;28;20422;-74
2022/04/04 03:38:13;;;;;;;;;;;;;;;12.20;44.02;101288.44;5055005;28;19924;-74
2022/04/04 03:40:39;;;;;;;;;;;;;;;11.86;45.11;101284.47;5054957;28;19951;-74
2022/04/04 03:43:05;;;;;;;;;;;;;;;11.96;44.72;101292.84;5054316;28;19940;-75
2022/04/04 03:45:30;;;;;;;;;;;;;;;12.47;43.26;101273.59;5054455;28;20003;-75
2022/04/04 03:47:56;;;;;;;;;;;;;;;11.91;44.37;101267.63;5054274;28;20368;-76
2022/04/04 03:50:22;;;;;;;;;;;;;;;11.99;44.27;101273.53;5054380;28;19970;-76
2022/04/04 03:52:48;;;;;;;;;;;;;;;11.99;44.21;101253.88;5054402;28;19913;-74
2022/04/04 03:55:14;;;;;;;;;;;;;;;11.71;44.50;101240.09;5083711;28;19913;-76
2022/04/04 03:57:40;;;;;;;;;;;;;;;12.02;44.21;101242.66;5033043;28;20004;-77
2022/04/04 04:00:06;;;;;;;;;;;;;;;12.09;43.94;101228.06;5034464;28;20003;-75
2022/04/04 04:02:32;;;;;;;;;;;;;;;11.55;45.10;101227.16;5047158;28;19923;-76
2022/04/04 04:04:57;;;;;;;;;;;;;;;11.85;44.31;101214.69;5054136;28;19908;-77
2022/04/04 04:07:24;;;;;;;;;;;;;;;11.89;44.41;101213.97;5054367;28;19921;-76
2022/04/04 04:09:51;;;;;;;;;;;;;;;11.80;44.71;101209.13;5054007;28;19921;-74
2022/04/04 04:12:16;;;;;;;;;;;;;;;11.42;45.27;101199.34;5054138;28;19913;-74
2022/04/04 04:14:41;;;;;;;;;;;;;;;12.20;43.53;101207.63;5053979;28;19921;-75
2022/04/04 04:17:08;;;;;;;;;;;;;;;11.35;45.15;101195.91;5054010;28;19928;-75
2022/04/04 04:22:18;;;;;;;;;;;;;;;11.86;44.09;101202.84;5034332;28;20292;-76
2022/04/04 04:24:43;;;;;;;;;;;;;;;12.22;43.41;101189.34;5051437;28;19917;-75
2022/04/04 04:27:08;;;;;;;;;;;;;;;11.98;43.54;101182.19;5053765;28;19920;-75
2022/04/04 04:29:34;;;;;;;;;;;;;;;11.31;45.68;101200.06;5053925;28;20402;-76
2022/04/04 04:31:59;;;;;;;;;;;;;;;11.31;45.09;101191.16;5053517;28;20413;-76
2022/04/04 04:34:24;;;;;;;;;;;;;;;12.55;42.49;101172.72;5053921;28;20007;-75
2022/04/04 04:36:51;;;;;;;;;;;;;;;11.49;45.07;101169.69;5054001;28;20299;-76
2022/04/04 04:39:16;;;;;;;;;;;;;;;11.69;45.40;101145.28;5052452;28;19947;-74
2022/04/04 04:41:42;;;;;;;;;;;;;;;11.67;45.45;101158.13;5053915;28;19944;-73
2022/04/04 04:44:07;;;;;;;;;;;;;;;12.45;43.92;101140.09;5053445;28;19952;-72
2022/04/04 04:46:33;;;;;;;;;;;;;;;12.34;44.27;101120.16;5053820;28;19999;-73
2022/04/04 04:48:59;;;;;;;;;;;;;;;11.63;45.71;101122.75;5053804;28;19913;-75
2022/04/04 04:51:24;;;;;;;;;;;;;;;12.42;43.59;101109.06;5053577;28;20372;-74
2022/04/04 04:53:49;;;;;;;;;;;;;;;11.81;44.96;101097.69;5053472;28;19932;-74
2022/04/04 04:56:14;;;;;;;;;;;;;;;12.09;44.19;101106.81;5053603;28;19917;-72
2022/04/04 04:58:40;;;;;;;;;;;;;;;11.94;44.47;101095.66;5053758;28;19917;-73
2022/04/04 05:01:06;;;;;;;;;;;;;;;11.76;44.33;101084.06;5053322;28;20399;-71
2022/04/04 05:03:31;;;;;;;;;;;;;;;12.27;43.69;101074.44;5053221;28;19924;-72
2022/04/04 05:05:57;;;;;;;;;;;;;;;12.63;42.62;101078.84;5047553;28;20357;-74
2022/04/04 05:08:22;;;;;;;;;;;;;;;11.80;44.02;101061.88;5032831;28;20397;-72
2022/04/04 05:10:47;;;;;;;;;;;;;;;12.67;42.21;101057.63;5047141;28;19939;-72
2022/04/04 05:13:13;;;;;;;;;;;;;;;12.15;43.24;101043.13;5052550;28;19909;-72
2022/04/04 05:15:39;;;;;;;;;;;;;;;12.64;42.01;101047.34;5049435;28;19959;-71
2022/04/04 05:18:04;;;;;;;;;;;;;;;12.58;42.16;101049.06;5052593;28;19921;-72
2022/04/04 05:20:29;;;;;;;;;;;;;;;12.56;42.38;101044.97;5050198;28;20410;-72
2022/04/04 05:22:55;;;;;;;;;;;;;;;12.21;42.61;101040.34;5052173;28;19917;-73
2022/04/04 05:25:20;;;;;;;;;;;;;;;11.92;43.49;101038.50;5052787;28;19940;-73
2022/04/04 05:27:45;;;;;;;;;;;;;;;11.77;43.99;101019.25;5052269;28;19917;-73
2022/04/04 05:30:11;;;;;;;;;;;;;;;12.05;43.72;101007.84;5052035;28;20019;-72
2022/04/04 05:32:36;;;;;;;;;;;;;;;12.54;42.20;101015.53;5072914;28;19921;-73
2022/04/04 05:35:08;;;;;;;;;;;;;;;12.43;42.24;101032.53;5051168;28;19921;-72
2022/04/04 05:37:33;;;;;;;;;;;;;;;12.53;42.41;100996.91;5052024;28;20327;-72
2022/04/04 05:39:59;;;;;;;;;;;;;;;12.22;42.74;101017.75;5052011;28;19924;-72
2022/04/04 05:42:24;;;;;;;;;;;;;;;11.83;43.74;101018.31;5052263;28;20261;-73
2022/04/04 05:44:49;;;;;;;;;;;;;;;12.05;42.86;100999.75;5052158;28;19917;-73
2022/04/04 05:47:17;;;;;;;;;;;;;;;12.36;42.60;100991.41;5052461;28;20071;-73
2022/04/04 05:49:43;;;;;;;;;;;;;;;11.52;44.33;100992.44;5051096;28;19909;-72
2022/04/04 05:52:09;;;;;;;;;;;;;;;12.01;42.60;100988.63;5051599;28;20269;-72
2022/04/04 05:54:34;;;;;;;;;;;;;;;11.84;43.69;100986.84;5049591;28;19972;-73
2022/04/04 05:56:59;;;;;;;;;;;;;;;12.69;41.64;100980.84;5051919;28;19928;-73
2022/04/04 05:59:25;;;;;;;;;;;;;;;12.57;42.13;100981.91;5052235;28;19919;-73
2022/04/04 06:01:50;;;;;;;;;;;;;;;12.04;43.21;100966.66;5052012;28;19936;-71
2022/04/04 06:04:15;;;;;;;;;;;;;;;11.39;44.41;100983.72;5034444;28;19958;-75
2022/04/04 06:06:40;;;;;;;;;;;;;;;12.63;41.80;100954.84;5051994;28;19927;-73
2022/04/04 06:09:06;;;;;;;;;;;;;;;12.98;40.94;100950.22;5052107;28;20443;-71
2022/04/04 06:11:31;;;;;;;;;;;;;;;13.03;41.11;100930.63;5052094;28;20287;-73
2022/04/04 06:13:57;;;;;;;;;;;;;;;12.33;41.69;100949.56;5050043;28;19923;-72
2022/04/04 06:16:22;;;;;;;;;;;;;;;12.22;42.78;100928.00;5050843;28;19916;-73
2022/04/04 06:18:48;;;;;;;;;;;;;;;12.45;41.67;100946.88;5052078;28;19917;-72
2022/04/04 06:21:13;;;;;;;;;;;;;;;12.33;42.35;100925.31;5052119;28;19920;-72
2022/04/04 06:23:38;;;;;;;;;;;;;;;13.08;40.49;100928.88;5051950;28;20003;-71
2022/04/04 06:26:06;;;;;;;;;;;;;;;12.99;40.50;100926.75;5051674;28;19916;-72
2022/04/04 06:28:34;;;;;;;;;;;;;;;12.55;41.96;100925.53;5055725;28;20026;-73
2022/04/04 06:31:00;;;;;;;;;;;;;;;12.46;41.95;100937.72;5055812;28;20431;-73
2022/04/04 06:33:26;;;;;;;;;;;;;;;13.20;40.54;100918.03;5055522;28;19999;-71
2022/04/04 06:35:51;;;;;;;;;;;;;;;12.55;41.43;100903.16;5055970;28;19916;-72
2022/04/04 06:38:18;;;;;;;;;;;;;;;12.42;41.94;100909.63;5056082;28;20392;-71
2022/04/04 06:40:44;;;;;;;;;;;;;;;12.24;42.05;100907.84;5056155;28;19934;-71
2022/04/04 06:43:10;;;;;;;;;;;;;;;12.29;42.13;100896.38;5054403;28;19920;-71
2022/04/04 06:45:35;;;;;;;;;;;;;;;12.83;41.08;100901.34;5055831;28;19923;-69
2022/04/04 06:48:00;;;;;;;;;;;;;;;13.35;40.12;100895.91;5056085;28;19920;-71
2022/04/04 06:50:25;;;;;;;;;;;;;;;13.08;40.41;100896.50;5056092;28;19916;-71
2022/04/04 06:52:52;;;;;;;;;;;;;;;12.11;42.79;100877.63;5055746;28;19912;-70
2022/04/04 06:55:17;;;;;;;;;;;;;;;12.66;42.40;100881.56;5056012;28;19924;-71
2022/04/04 06:57:43;;;;;;;;;;;;;;;12.56;42.82;100872.47;5056158;28;20418;-70
2022/04/04 07:00:08;;;;;;;;;;;;;;;12.39;43.79;100877.75;5055607;28;19960;-70
2022/04/04 07:02:35;;;;;;;;;;;;;;;11.80;45.42;100878.78;5055511;28;20003;-69
2022/04/04 07:05:00;;;;;;;;;;;;;;;11.39;46.99;100878.78;5055187;28;19917;-71
2022/04/04 07:07:25;;;;;;;;;;;;;;;12.83;44.27;100869.00;5055625;28;19933;-70
2022/04/04 07:09:51;;;;;;;;;;;;;;;12.68;44.84;100895.63;5055396;28;19996;-70
2022/04/04 07:12:16;;;;;;;;;;;;;;;11.78;47.25;100864.72;5054732;28;20003;-72
2022/04/04 07:14:41;;;;;;;;;;;;;;;12.09;47.26;100861.69;5054901;28;19920;-73
2022/04/04 07:17:06;;;;;;;;;;;;;;;11.94;48.19;100842.50;5054829;28;19966;-72
2022/04/04 07:19:33;;;;;;;;;;;;;;;11.87;49.35;100863.31;5055615;28;20554;-70
2022/04/04 07:21:59;;;;;;;;;;;;;;;11.88;48.97;100850.69;5054697;28;19923;-71
2022/04/04 07:24:24;;;;;;;;;;;;;;;12.04;49.54;100836.53;5054833;28;19917;-70
2022/04/04 07:26:49;;;;;;;;;;;;;;;12.87;47.89;100828.88;5054397;28;19920;-71
2022/04/04 07:29:15;;;;;;;;;;;;;;;11.99;49.58;100831.84;5054950;28;19928;-71
2022/04/04 07:31:41;;;;;;;;;;;;;;;11.78;50.62;100813.59;5055138;28;20019;-71
2022/04/04 07:34:06;;;;;;;;;;;;;;;11.78;50.67;100823.53;5054423;28;19925;-70
2022/04/04 07:36:31;;;;;;;;;;;;;;;11.95;50.58;100821.78;5054244;28;19917;-71
2022/04/04 07:38:57;;;;;;;;;;;;;;;12.19;49.92;100799.97;5053685;28;19951;-71
2022/04/04 07:41:22;;;;;;;;;;;;;;;12.04;50.41;100790.75;5054384;28;19917;-71
2022/04/04 07:43:47;;;;;;;;;;;;;;;13.05;47.27;100788.25;5054484;28;20368;-71
2022/04/04 07:46:13;;;;;;;;;;;;;;;12.10;49.36;100787.09;5053978;28;19905;-70
2022/04/04 07:48:40;;;;;;;;;;;;;;;12.58;48.35;100792.97;5054279;28;20027;-71
2022/04/04 07:51:06;;;;;;;;;;;;;;;11.61;50.92;100779.47;5054288;28;19917;-71
2022/04/04 07:53:31;;;;;;;;;;;;;;;12.99;47.37;100768.41;5053835;28;19917;-73
2022/04/04 07:55:56;;;;;;;;;;;;;;;12.95;47.58;100782.63;5054037;28;19935;-72
2022/04/04 07:58:22;;;;;;;;;;;;;;;13.19;46.19;100771.50;5054227;28;19977;-70
2022/04/04 08:00:47;;;;;;;;;;;;;;;12.23;48.47;100766.13;5053202;28;20015;-72
2022/04/04 08:03:12;;;;;;;;;;;;;;;12.49;48.25;100761.25;5053139;28;19917;-72
2022/04/04 08:05:37;;;;;;;;;;;;;;;12.47;48.46;100756.09;5082583;28;19955;-74
2022/04/04 08:08:03;;;;;;;;;;;;;;;12.40;48.86;100750.03;5042919;28;19928;-72
2022/04/04 08:10:29;;;;;;;;;;;;;;;13.27;46.97;100745.19;5053912;28;19912;-76
2022/04/04 08:12:54;;;;;;;;;;;;;;;12.98;47.29;100753.28;5053417;28;20039;-74
2022/04/04 08:15:20;;;;;;;;;;;;;;;11.70;50.40;100770.03;5053753;28;19928;-73
2022/04/04 08:17:45;;;;;;;;;;;;;;;12.03;49.79;100732.53;5053285;28;19924;-71
2022/04/04 08:20:10;;;;;;;;;;;;;;;12.76;48.71;100740.72;5052564;28;20011;-72
2022/04/04 08:22:43;;;;;;;;;;;;;;;12.01;50.08;100756.22;5054323;28;19908;-73
2022/04/04 08:25:08;;;;;;;;;;;;;;;12.47;49.25;100739.94;5053873;28;19924;-75
2022/04/04 08:27:35;;;;;;;;;;;;;;;12.14;50.56;100747.88;5054057;28;20368;-71
2022/04/04 08:30:01;;;;;;;;;;;;;;;12.81;50.06;100732.75;5053874;28;19917;-73
2022/04/04 08:32:26;;;;;;;;;;;;;;;12.16;51.37;100734.97;5054025;28;20294;-72
2022/04/04 08:34:51;;;;;;;;;;;;;;;11.96;52.03;100734.56;5053514;28;20491;-71
2022/04/04 08:37:17;;;;;;;;;;;;;;;12.39;51.44;100734.91;5043157;28;20408;-73
2022/04/04 08:39:47;;;;;;;;;;;;;;;11.23;54.69;100767.28;5046520;28;19983;-77
2022/04/04 08:42:13;;;;;;;;;;;;;;;11.62;54.41;100713.81;5043579;28;20034;-73
2022/04/04 08:44:39;;;;;;;;;;;;;;;12.22;53.07;100716.00;5053191;28;19923;-74
2022/04/04 08:47:06;;;;;;;;;;;;;;;12.06;53.82;100726.69;5053044;28;20390;-73
2022/04/04 08:49:31;;;;;;;;;;;;;;;11.49;55.65;100720.28;5052470;28;19935;-73
2022/04/04 08:51:57;;;;;;;;;;;;;;;12.53;53.22;100708.50;5052743;28;19912;-71
2022/04/04 08:54:22;;;;;;;;;;;;;;;12.23;53.49;100709.53;5052923;28;19921;-75
2022/04/04 08:56:47;;;;;;;;;;;;;;;11.21;56.76;100717.44;5051611;28;19920;-73
2022/04/04 08:59:13;;;;;;;;;;;;;;;11.64;56.48;100709.84;5053156;28;19916;-75
2022/04/04 09:01:38;;;;;;;;;;;;;;;11.48;56.79;100694.41;5053838;28;19923;-73
2022/04/04 09:04:04;;;;;;;;;;;;;;;11.87;56.32;100693.69;5053105;28;20003;-73
2022/04/04 09:06:29;;;;;;;;;;;;;;;11.86;55.96;100691.25;5048732;28;19974;-72
2022/04/04 09:08:56;;;;;;;;;;;;;;;11.91;55.45;100708.31;5049233;28;19916;-73
2022/04/04 09:11:21;;;;;;;;;;;;;;;11.58;56.42;100685.78;5050635;28;19972;-72
2022/04/04 09:14:01;;;;;;;;;;;;;;;11.72;56.19;100682.59;5049496;28;19920;-71
2022/04/04 09:16:26;;;;;;;;;;;;;;;11.73;56.18;100715.75;5050416;28;19919;-69
2022/04/04 09:18:51;;;;;;;;;;;;;;;11.52;56.62;100685.63;5050043;28;19913;-74
2022/04/04 09:21:20;;;;;;;;;;;;;;;11.95;55.95;100673.69;5048117;28;20378;-71
2022/04/04 09:23:51;;;;;;;;;;;;;;;11.81;55.99;100699.22;5049726;28;19951;-74
2022/04/04 09:26:29;;;;;;;;;;;;;;;11.69;56.77;100661.56;5050249;28;19971;-72
2022/04/04 09:28:54;;;;;;;;;;;;;;;11.61;56.62;100667.28;5050723;28;19917;-73
2022/04/04 09:31:20;;;;;;;;;;;;;;;11.90;56.01;100671.69;5053375;28;20305;-72
2022/04/04 09:33:45;;;;;;;;;;;;;;;10.92;59.33;100651.94;5052680;28;19974;-76
2022/04/04 09:36:11;;;;;;;;;;;;;;;11.29;57.82;100644.47;5049935;28;20003;-73
2022/04/04 09:38:36;;;;;;;;;;;;;;;11.60;56.92;100656.72;5051784;28;20326;-72
2022/04/04 09:41:05;;;;;;;;;;;;;;;11.67;56.43;100649.38;5051946;28;19908;-74
2022/04/04 09:43:49;;;;;;;;;;;;;;;12.09;55.87;100666.94;5052978;28;19944;-75
2022/04/04 09:46:14;;;;;;;;;;;;;;;11.48;56.09;100671.00;5050221;28;19913;-74
2022/04/04 09:48:59;;;;;;;;;;;;;;;11.51;57.53;100653.59;5052118;28;19917;-74
2022/04/04 09:51:43;;;;;;;;;;;;;;;11.15;57.94;100643.06;5048209;28;19924;-75
2022/04/04 09:54:10;;;;;;;;;;;;;;;12.19;55.87;100645.59;5052187;28;19924;-76
2022/04/04 09:56:35;;;;;;;;;;;;;;;11.85;56.69;100627.69;5052552;28;19916;-74
2022/04/04 09:59:02;;;;;;;;;;;;;;;11.29;58.27;100633.72;5052459;28;19961;-75
2022/04/04 10:01:29;;;;;;;;;;;;;;;12.29;55.71;100645.78;5052277;28;19928;-73
2022/04/04 10:03:55;;;;;;;;;;;;;;;12.33;55.82;100626.22;5052681;28;19913;-76
2022/04/04 10:06:22;;;;;;;;;;;;;;;12.43;55.82;100620.19;5052575;28;19917;-73
2022/04/04 10:08:54;;;;;;;;;;;;;;;11.81;57.45;100621.94;5052618;28;20303;-76
2022/04/04 10:11:20;;;;;;;;;;;;;;;11.89;57.57;100593.84;5051780;28;19916;-76
2022/04/04 10:13:46;;;;;;;;;;;;;;;12.57;56.04;100604.53;5051845;28;19971;-73
2022/04/04 10:16:12;;;;;;;;;;;;;;;12.27;56.59;100600.25;5052205;28;20368;-75
2022/04/04 10:18:37;;;;;;;;;;;;;;;12.11;56.52;100613.66;5051732;28;19966;-73
2022/04/04 10:21:03;;;;;;;;;;;;;;;12.40;55.74;100620.69;5051573;28;19924;-73
2022/04/04 10:23:29;;;;;;;;;;;;;;;11.86;57.65;100599.69;5051252;28;20321;-74
2022/04/04 10:25:57;;;;;;;;;;;;;;;11.94;57.27;100599.31;5050355;28;20411;-73
2022/04/04 10:28:27;;;;;;;;;;;;;;;12.13;57.01;100596.19;5052270;28;19951;-75
2022/04/04 10:30:52;;;;;;;;;;;;;;;12.44;56.16;100591.38;5052087;28;19920;-73
2022/04/04 10:33:19;;;;;;;;;;;;;;;12.22;57.46;100588.56;5050213;28;20316;-74
2022/04/04 10:35:57;;;;;;;;;;;;;;;12.66;55.19;100589.59;5084078;28;19916;-72
2022/04/04 10:38:28;;;;;;;;;;;;;;;12.39;56.65;100559.75;5051242;28;19917;-75
2022/04/04 10:40:53;;;;;;;;;;;;;;;12.38;56.82;100581.56;5051995;28;19908;-72
2022/04/04 10:43:19;;;;;;;;;;;;;;;12.03;58.50;100576.31;5052760;28;19959;-74
2022/04/04 10:45:58;;;;;;;;;;;;;;;12.17;57.97;100566.91;5052272;28;19959;-76
2022/04/04 10:48:29;;;;;;;;;;;;;;;12.09;57.91;100564.59;5051602;28;19967;-73
2022/04/04 10:50:54;;;;;;;;;;;;;;;12.23;57.80;100560.53;5051701;28;19952;-75
2022/04/04 10:53:37;;;;;;;;;;;;;;;12.29;57.67;100536.16;5051390;28;19979;-71
2022/04/04 10:56:04;;;;;;;;;;;;;;;12.07;58.48;100564.84;5036662;28;19923;-69
2022/04/04 10:58:29;;;;;;;;;;;;;;;11.91;58.92;100554.84;5051258;28;19970;-70
2022/04/04 11:01:09;;;;;;;;;;;;;;;13.32;56.74;100535.59;5050922;28;19921;-72
2022/04/04 11:03:52;;;;;;;;;;;;;;;12.24;59.59;100525.28;5051335;28;19916;-69
2022/04/04 11:09:08;;;;;;;;;;;;;;;12.90;57.47;100516.34;5049176;28;20291;-72
2022/04/04 11:11:47;;;;;;;;;;;;;;;12.46;59.28;100495.72;5051467;28;19917;-71
2022/04/04 11:14:13;;;;;;;;;;;;;;;13.39;56.05;100511.91;5053968;28;19921;-70
2022/04/04 11:16:57;;;;;;;;;;;;;;;12.84;58.56;100503.88;5078366;28;19917;-72
2022/04/04 11:19:27;;;;;;;;;;;;;;;12.48;59.20;100515.16;5051912;28;19913;-70
2022/04/04 11:21:52;;;;;;;;;;;;;;;12.41;59.34;100484.88;5053260;28;20032;-71
2022/04/04 11:24:18;;;;;;;;;;;;;;;12.53;67.73;100493.69;5052954;28;20199;-72
2022/04/04 11:26:46;;;;;;;;;;;;;;;13.12;58.23;100497.53;5053511;28;19917;-72
2022/04/04 11:29:15;;;;;;;;;;;;;;;12.52;59.85;100483.97;5053920;28;19920;-72
2022/04/04 11:31:47;;;;;;;;;;;;;;;13.18;57.21;100485.75;5036242;28;20304;-75
2022/04/04 11:34:13;;;;;;;;;;;;;;;13.09;58.30;100485.34;5046508;28;20295;-72
2022/04/04 11:36:39;;;;;;;;;;;;;;;13.01;58.11;100515.41;5046251;28;19916;-69
2022/04/04 11:39:08;;;;;;;;;;;;;;;13.31;57.70;100474.56;5050695;28;19974;-72
2022/04/04 11:41:36;;;;;;;;;;;;;;;13.30;57.85;100467.56;5050772;28;19912;-72
2022/04/04 11:44:02;;;;;;;;;;;;;;;12.63;59.61;100483.06;5050428;28;20395;-72
2022/04/04 11:46:27;;;;;;;;;;;;;;;13.05;58.82;100468.03;5050875;28;19920;-69
2022/04/04 11:48:57;;;;;;;;;;;;;;;13.18;58.41;100458.75;5050550;28;19921;-71
2022/04/04 11:51:32;;;;;;;;;;;;;;;13.23;58.08;100448.84;5050738;28;19917;-73
2022/04/04 11:54:02;;;;;;;;;;;;;;;13.64;57.20;100469.00;5047669;28;19978;-71
2022/04/04 11:56:28;;;;;;;;;;;;;;;12.85;59.27;100467.75;5050054;28;19927;-73
2022/04/04 11:58:55;;;;;;;;;;;;;;;12.82;59.66;100464.72;5049997;28;20398;-71
2022/04/04 12:01:21;;;;;;;;;;;;;;;13.02;58.76;100452.34;5050889;28;19909;-69
2022/04/04 12:03:50;;;;;;;;;;;;;;;12.53;61.24;100469.44;5050239;28;19927;-73
2022/04/04 12:06:15;;;;;;;;;;;;;;;13.41;58.50;100450.38;5048328;28;20049;-72
2022/04/04 12:08:44;;;;;;;;;;;;;;;12.62;60.94;100451.75;5049453;28;19920;-72
2022/04/04 12:11:10;;;;;;;;;;;;;;;13.16;59.59;100439.31;5047000;28;19921;-73
2022/04/04 12:13:47;;;;;;;;;;;;;;;13.84;57.61;100434.09;5050020;28;19916;-73
2022/04/04 12:16:12;;;;;;;;;;;;;;;13.53;58.56;100425.94;5049825;28;19990;-74
2022/04/04 12:18:37;;;;;;;;;;;;;;;13.46;58.25;100441.53;5048531;28;20436;-73
2022/04/04 12:21:03;;;;;;;;;;;;;;;13.55;57.66;100426.50;5048644;28;19917;-72
2022/04/04 12:26:14;;;;;;;;;;;;;;;13.88;57.00;100413.59;5050886;28;19967;-72
2022/04/04 12:28:41;;;;;;;;;;;;;;;13.83;57.31;100432.47;5050659;28;19973;-72
2022/04/04 12:31:09;;;;;;;;;;;;;;;12.51;60.97;100422.22;5050945;28;19944;-72
2022/04/04 12:33:34;;;;;;;;;;;;;;;13.81;58.49;100418.41;5050258;28;20474;-71
2022/04/04 12:36:00;;;;;;;;;;;;;;;13.13;60.42;100429.00;5050184;28;19928;-71
2022/04/04 12:38:35;;;;;;;;;;;;;;;12.74;60.64;100430.91;5050586;28;20366;-71
2022/04/04 12:41:07;;;;;;;;;;;;;;;13.28;59.31;100410.31;5050423;28;20509;-71